Time;durP1;ratioP1;P1;durP2;ratioP2;P2;SDS_P1;SDS_P2;PMS_P1;PMS_P2;Temp;Humidity;BMP_temperature;BMP_pressure;BME280_temperature;BME280_humidity;BME280_pressure;Samples;Min_cycle;Max_cycle;Signal;HPM_P1;HPM_P2
2022/02/14 00:02:07;;;;;;;;;;;24.70;99.90;;;;;;5071912;28;19909;-72
2022/02/14 00:04:34;;;;;;;;;;;24.90;99.90;;;;;;5072089;28;20339;-71
2022/02/14 00:07:00;;;;;;;;;;;24.80;99.90;;;;;;5072231;28;20513;-70
2022/02/14 00:09:27;;;;;;;;;;;25.00;99.90;;;;;;5072197;28;19951;-72
2022/02/14 00:11:53;;;;;;;;;;;24.90;99.90;;;;;;5071784;28;19919;-72
2022/02/14 00:14:23;;;;;;;;;;;24.80;99.90;;;;;;5072172;28;20352;-73
2022/02/14 00:16:50;;;;;;;;;;;24.80;99.90;;;;;;5071913;28;19909;-72
2022/02/14 00:19:16;;;;;;;;;;;24.70;99.90;;;;;;5071787;28;19912;-73
2022/02/14 00:21:43;;;;;;;;;;;24.70;99.90;;;;;;5072045;28;20287;-72
2022/02/14 00:24:10;;;;;;;;;;;24.80;99.90;;;;;;5071695;28;20261;-73
2022/02/14 00:26:37;;;;;;;;;;;24.80;99.90;;;;;;5072178;28;19915;-73
2022/02/14 00:29:03;;;;;;;;;;;24.80;99.90;;;;;;5072027;28;20275;-72
2022/02/14 00:31:30;;;;;;;;;;;24.70;99.90;;;;;;5071854;28;19920;-72
2022/02/14 00:33:57;;;;;;;;;;;24.70;99.90;;;;;;5071592;28;19999;-72
2022/02/14 00:36:24;;;;;;;;;;;24.80;99.90;;;;;;5071502;28;20293;-70
2022/02/14 00:38:51;;;;;;;;;;;24.70;99.90;;;;;;5071910;28;19912;-73
2022/02/14 00:41:18;;;;;;;;;;;24.80;99.90;;;;;;5075380;28;19932;-70
2022/02/14 00:43:44;;;;;;;;;;;25.00;99.90;;;;;;5075262;28;19915;-71
2022/02/14 00:46:11;;;;;;;;;;;24.90;99.90;;;;;;5075251;28;19909;-71
2022/02/14 00:48:37;;;;;;;;;;;24.80;99.90;;;;;;5075176;28;19935;-71
2022/02/14 00:51:04;;;;;;;;;;;24.80;99.90;;;;;;5075121;28;19915;-71
2022/02/14 00:53:31;;;;;;;;;;;24.70;99.90;;;;;;5075109;28;19916;-71
2022/02/14 00:55:57;;;;;;;;;;;24.50;99.90;;;;;;5074818;28;19909;-71
2022/02/14 00:58:24;;;;;;;;;;;24.50;99.90;;;;;;5075101;28;19916;-71
2022/02/14 01:00:51;;;;;;;;;;;24.70;99.90;;;;;;5074975;28;20256;-71
2022/02/14 01:03:17;;;;;;;;;;;24.90;99.90;;;;;;5074816;28;20303;-71
2022/02/14 01:05:44;;;;;;;;;;;25.10;99.90;;;;;;5074994;28;19909;-72
2022/02/14 01:08:11;;;;;;;;;;;25.30;99.90;;;;;;5074895;28;19912;-71
2022/02/14 01:10:37;;;;;;;;;;;25.30;99.90;;;;;;5074836;28;19914;-71
2022/02/14 01:13:04;;;;;;;;;;;25.30;99.90;;;;;;5074338;28;20570;-72
2022/02/14 01:15:31;;;;;;;;;;;25.50;99.90;;;;;;5074611;28;19916;-71
2022/02/14 01:17:57;;;;;;;;;;;25.90;99.90;;;;;;5074194;28;19909;-72
2022/02/14 01:20:24;;;;;;;;;;;26.00;99.90;;;;;;5074610;28;20390;-71
2022/02/14 01:22:51;;;;;;;;;;;26.20;99.90;;;;;;5074681;28;19912;-72
2022/02/14 01:25:17;;;;;;;;;;;25.80;99.90;;;;;;5074556;28;19954;-72
2022/02/14 01:27:44;;;;;;;;;;;25.60;99.90;;;;;;5074465;28;19915;-72
2022/02/14 01:30:11;;;;;;;;;;;25.70;99.90;;;;;;5073539;28;19935;-72
2022/02/14 01:32:38;;;;;;;;;;;25.80;99.90;;;;;;5074118;28;19923;-72
2022/02/14 01:35:05;;;;;;;;;;;25.70;99.90;;;;;;5074126;28;19961;-72
2022/02/14 01:37:38;;;;;;;;;;;25.70;99.90;;;;;;5074269;28;20339;-72
2022/02/14 01:40:06;;;;;;;;;;;25.90;99.90;;;;;;5073713;28;19908;-72
2022/02/14 01:42:33;;;;;;;;;;;25.70;99.90;;;;;;5074337;28;19954;-72
2022/02/14 01:44:59;;;;;;;;;;;25.90;99.90;;;;;;5074194;28;20355;-72
2022/02/14 01:47:26;;;;;;;;;;;26.00;99.90;;;;;;5073916;28;19915;-72
2022/02/14 01:49:53;;;;;;;;;;;26.00;99.90;;;;;;5073389;28;19916;-72
2022/02/14 01:52:22;;;;;;;;;;;26.00;99.90;;;;;;5073946;28;19916;-72
2022/02/14 01:54:49;;;;;;;;;;;25.80;99.90;;;;;;5073933;28;20012;-72
2022/02/14 01:57:16;;;;;;;;;;;25.50;99.90;;;;;;5106228;28;20313;-72
2022/02/14 01:59:44;;;;;;;;;;;25.60;99.90;;;;;;5073546;28;19966;-72
2022/02/14 02:02:11;;;;;;;;;;;25.50;99.90;;;;;;5073365;28;19948;-72
2022/02/14 02:04:38;;;;;;;;;;;25.50;99.90;;;;;;5073741;28;19908;-72
2022/02/14 02:07:05;;;;;;;;;;;25.50;99.90;;;;;;5073798;28;19909;-72
2022/02/14 02:09:31;;;;;;;;;;;25.70;99.90;;;;;;5073471;28;20259;-71
2022/02/14 02:14:43;;;;;;;;;;;25.70;99.90;;;;;;5073671;28;20331;-71
2022/02/14 02:17:10;;;;;;;;;;;25.90;99.90;;;;;;5073326;28;20346;-71
2022/02/14 02:19:36;;;;;;;;;;;25.90;99.90;;;;;;5073324;28;19908;-71
2022/02/14 02:22:03;;;;;;;;;;;25.90;99.90;;;;;;5072937;28;20345;-71
2022/02/14 02:24:33;;;;;;;;;;;26.10;99.90;;;;;;5073169;28;19909;-71
2022/02/14 02:27:00;;;;;;;;;;;26.10;99.90;;;;;;5073218;28;19908;-72
2022/02/14 02:29:28;;;;;;;;;;;26.00;99.90;;;;;;5073539;28;19908;-72
2022/02/14 02:31:55;;;;;;;;;;;26.20;99.90;;;;;;5072888;28;20351;-72
2022/02/14 02:34:21;;;;;;;;;;;26.20;99.90;;;;;;5072944;28;20008;-72
2022/02/14 02:36:48;;;;;;;;;;;26.30;99.90;;;;;;5073115;28;19908;-71
2022/02/14 02:39:15;;;;;;;;;;;26.30;99.90;;;;;;5073022;28;19913;-73
2022/02/14 02:41:42;;;;;;;;;;;26.30;99.90;;;;;;5073008;28;19948;-71
2022/02/14 02:44:09;;;;;;;;;;;26.10;99.90;;;;;;5072610;28;19954;-71
2022/02/14 02:46:36;;;;;;;;;;;26.10;99.90;;;;;;5072967;28;19952;-71
2022/02/14 02:49:16;;;;;;;;;;;26.10;99.90;;;;;;5072753;28;19908;-72
2022/02/14 02:51:43;;;;;;;;;;;26.00;99.90;;;;;;5072761;28;19923;-71
2022/02/14 02:54:10;;;;;;;;;;;26.10;99.90;;;;;;5072466;28;19966;-72
2022/02/14 02:56:38;;;;;;;;;;;26.10;99.90;;;;;;5072751;28;19908;-73
2022/02/14 02:59:05;;;;;;;;;;;26.20;99.90;;;;;;5072674;28;19962;-72
2022/02/14 03:01:32;;;;;;;;;;;26.20;99.90;;;;;;5072332;28;19917;-72
2022/02/14 03:04:01;;;;;;;;;;;26.20;99.90;;;;;;5072237;28;20042;-72
2022/02/14 03:06:27;;;;;;;;;;;26.10;99.90;;;;;;5072835;28;19965;-72
2022/02/14 03:08:54;;;;;;;;;;;26.10;99.90;;;;;;5072765;28;20017;-72
2022/02/14 03:11:21;;;;;;;;;;;26.10;99.90;;;;;;5072534;28;19916;-72
2022/02/14 03:13:48;;;;;;;;;;;26.30;99.90;;;;;;5072367;28;19954;-72
2022/02/14 03:16:15;;;;;;;;;;;26.20;99.90;;;;;;5072488;28;20000;-72
2022/02/14 03:18:42;;;;;;;;;;;26.20;99.90;;;;;;5072492;28;20543;-72
2022/02/14 03:21:09;;;;;;;;;;;25.90;99.90;;;;;;5072575;28;19908;-72
2022/02/14 03:23:36;;;;;;;;;;;25.80;99.90;;;;;;5072555;28;20308;-72
2022/02/14 03:26:03;;;;;;;;;;;25.80;99.90;;;;;;5072217;28;20317;-72
2022/02/14 03:28:30;;;;;;;;;;;25.90;99.90;;;;;;5072282;28;19924;-71
2022/02/14 03:30:58;;;;;;;;;;;26.00;99.90;;;;;;5072575;28;20382;-72
2022/02/14 03:33:25;;;;;;;;;;;26.10;99.90;;;;;;5071683;28;20298;-71
2022/02/14 03:35:52;;;;;;;;;;;26.00;99.90;;;;;;5071866;28;19932;-71
2022/02/14 03:38:19;;;;;;;;;;;26.10;99.90;;;;;;5072371;28;19962;-71
2022/02/14 03:40:46;;;;;;;;;;;26.20;99.90;;;;;;5072175;28;19947;-71
2022/02/14 03:43:12;;;;;;;;;;;26.00;99.90;;;;;;5072225;28;19909;-72
2022/02/14 03:45:40;;;;;;;;;;;26.00;99.90;;;;;;5072270;28;20430;-71
2022/02/14 03:48:07;;;;;;;;;;;26.10;99.90;;;;;;5071640;28;19909;-71
2022/02/14 03:50:34;;;;;;;;;;;26.00;99.90;;;;;;5072044;28;19912;-72
2022/02/14 03:53:01;;;;;;;;;;;26.00;99.90;;;;;;5072170;28;19994;-72
2022/02/14 03:55:28;;;;;;;;;;;26.10;99.90;;;;;;5072055;28;19916;-72
2022/02/14 03:57:54;;;;;;;;;;;26.10;99.90;;;;;;5071810;28;19969;-72
2022/02/14 04:00:22;;;;;;;;;;;26.10;99.90;;;;;;5104135;28;19928;-71
2022/02/14 04:02:48;;;;;;;;;;;26.10;99.90;;;;;;5071823;28;19908;-72
2022/02/14 04:05:16;;;;;;;;;;;26.00;99.90;;;;;;5072175;28;19909;-72
2022/02/14 04:07:43;;;;;;;;;;;26.00;99.90;;;;;;5072142;28;19991;-72
2022/02/14 04:10:11;;;;;;;;;;;26.00;99.90;;;;;;5071694;28;19909;-72
2022/02/14 04:12:38;;;;;;;;;;;25.90;99.90;;;;;;5071571;28;20399;-72
2022/02/14 04:15:05;;;;;;;;;;;25.80;99.90;;;;;;5075572;28;19909;-72
2022/02/14 04:17:32;;;;;;;;;;;25.70;99.90;;;;;;5075388;28;19908;-72
2022/02/14 04:19:59;;;;;;;;;;;25.70;99.90;;;;;;5075454;28;19908;-72
2022/02/14 04:22:26;;;;;;;;;;;25.90;99.90;;;;;;5075318;28;19909;-72
2022/02/14 04:24:52;;;;;;;;;;;25.90;99.90;;;;;;5075432;28;19908;-72
2022/02/14 04:27:19;;;;;;;;;;;26.00;99.90;;;;;;5075503;28;19909;-71
2022/02/14 04:29:46;;;;;;;;;;;25.90;99.90;;;;;;5075303;28;19916;-72
2022/02/14 04:32:12;;;;;;;;;;;25.90;99.90;;;;;;5075116;28;19916;-72
2022/02/14 04:34:39;;;;;;;;;;;25.90;99.90;;;;;;5075490;28;19908;-73
2022/02/14 04:37:06;;;;;;;;;;;26.00;99.90;;;;;;5075136;28;19912;-73
2022/02/14 04:39:33;;;;;;;;;;;25.90;99.90;;;;;;5075182;28;19912;-73
2022/02/14 04:41:59;;;;;;;;;;;26.00;99.90;;;;;;5075199;28;19962;-72
2022/02/14 04:44:26;;;;;;;;;;;25.90;99.90;;;;;;5075183;28;19916;-72
2022/02/14 04:46:53;;;;;;;;;;;25.90;99.90;;;;;;5075037;28;19909;-72
2022/02/14 04:49:19;;;;;;;;;;;25.90;99.90;;;;;;5075053;28;20003;-72
2022/02/14 04:51:46;;;;;;;;;;;25.90;99.90;;;;;;5074899;28;20414;-72
2022/02/14 04:54:13;;;;;;;;;;;26.00;99.90;;;;;;5075061;28;19912;-73
2022/02/14 04:56:39;;;;;;;;;;;25.70;99.90;;;;;;5075061;28;20347;-72
2022/02/14 04:59:08;;;;;;;;;;;25.80;99.90;;;;;;5075000;28;19948;-72
2022/02/14 05:01:35;;;;;;;;;;;25.90;99.90;;;;;;5074898;28;19921;-72
2022/02/14 05:04:02;;;;;;;;;;;25.90;99.90;;;;;;5074577;28;19962;-73
2022/02/14 05:06:28;;;;;;;;;;;26.00;99.90;;;;;;5074391;28;19915;-71
2022/02/14 05:08:55;;;;;;;;;;;25.80;99.90;;;;;;5074915;28;19909;-72
2022/02/14 05:11:23;;;;;;;;;;;25.70;99.90;;;;;;5074623;28;19909;-72
2022/02/14 05:13:50;;;;;;;;;;;25.80;99.90;;;;;;5074305;28;19912;-72
2022/02/14 05:16:22;;;;;;;;;;;25.70;99.90;;;;;;5074073;28;20030;-72
2022/02/14 05:18:48;;;;;;;;;;;25.60;99.90;;;;;;5074139;28;20460;-72
2022/02/14 05:21:15;;;;;;;;;;;25.60;99.90;;;;;;5074537;28;19931;-72
2022/02/14 05:23:42;;;;;;;;;;;25.70;99.90;;;;;;5074677;28;19977;-73
2022/02/14 05:26:08;;;;;;;;;;;25.60;99.90;;;;;;5073366;28;19931;-72
2022/02/14 05:28:35;;;;;;;;;;;25.50;99.90;;;;;;5074593;28;19970;-72
2022/02/14 05:31:02;;;;;;;;;;;25.40;99.90;;;;;;5074129;28;19908;-72
2022/02/14 05:33:28;;;;;;;;;;;25.40;99.90;;;;;;5074345;28;20007;-72
2022/02/14 05:35:55;;;;;;;;;;;25.40;99.90;;;;;;5074155;28;19963;-72
2022/02/14 05:38:22;;;;;;;;;;;25.40;99.90;;;;;;5073897;28;20067;-73
2022/02/14 05:40:48;;;;;;;;;;;25.30;99.90;;;;;;5074141;28;20245;-72
2022/02/14 05:43:16;;;;;;;;;;;25.30;99.90;;;;;;5074049;28;19908;-72
2022/02/14 05:45:43;;;;;;;;;;;25.30;99.90;;;;;;5073861;28;20373;-72
2022/02/14 05:48:09;;;;;;;;;;;25.50;99.90;;;;;;5106456;28;19908;-72
2022/02/14 05:50:36;;;;;;;;;;;25.50;99.90;;;;;;5073699;28;19909;-72
2022/02/14 05:53:03;;;;;;;;;;;25.30;99.90;;;;;;5071258;28;19970;-72
2022/02/14 05:55:29;;;;;;;;;;;25.30;99.90;;;;;;5072013;28;20348;-72
2022/02/14 05:57:56;;;;;;;;;;;25.20;99.90;;;;;;5071485;28;19917;-72
2022/02/14 06:00:23;;;;;;;;;;;25.10;99.90;;;;;;5071467;28;19924;-72
2022/02/14 06:02:49;;;;;;;;;;;25.20;99.90;;;;;;5071459;28;19965;-72
2022/02/14 06:05:16;;;;;;;;;;;25.10;99.90;;;;;;5071093;28;20019;-73
2022/02/14 06:07:43;;;;;;;;;;;25.10;99.90;;;;;;5071385;28;19913;-73
2022/02/14 06:10:10;;;;;;;;;;;25.00;99.90;;;;;;5071214;28;19909;-72
2022/02/14 06:12:36;;;;;;;;;;;25.10;99.90;;;;;;5071239;28;19982;-72
2022/02/14 06:15:04;;;;;;;;;;;25.20;99.90;;;;;;5071160;28;20238;-72
2022/02/14 06:17:31;;;;;;;;;;;25.10;99.90;;;;;;5070832;28;20021;-73
2022/02/14 06:19:57;;;;;;;;;;;25.10;99.90;;;;;;5070875;28;19935;-72
2022/02/14 06:22:25;;;;;;;;;;;25.00;99.90;;;;;;5071002;28;20303;-73
2022/02/14 06:24:51;;;;;;;;;;;25.00;99.90;;;;;;5071175;28;20393;-72
2022/02/14 06:27:18;;;;;;;;;;;24.80;99.90;;;;;;5071221;28;19920;-72
2022/02/14 06:29:45;;;;;;;;;;;24.70;99.90;;;;;;5071004;28;19909;-72
2022/02/14 06:32:14;;;;;;;;;;;24.70;99.90;;;;;;5070622;28;19951;-72
2022/02/14 06:34:41;;;;;;;;;;;24.70;99.90;;;;;;5071022;28;19917;-72
2022/02/14 06:37:07;;;;;;;;;;;24.70;99.90;;;;;;5070866;28;19916;-72
2022/02/14 06:39:34;;;;;;;;;;;24.80;99.90;;;;;;5070947;28;19913;-72
2022/02/14 06:42:01;;;;;;;;;;;24.80;99.90;;;;;;5070709;28;19916;-72
2022/02/14 06:44:27;;;;;;;;;;;24.90;99.90;;;;;;5070272;28;19918;-72
2022/02/14 06:46:54;;;;;;;;;;;24.90;99.90;;;;;;5070873;28;19914;-73
2022/02/14 06:49:21;;;;;;;;;;;24.80;99.90;;;;;;5070561;28;19912;-72
2022/02/14 06:51:48;;;;;;;;;;;24.80;99.90;;;;;;5070408;28;19952;-72
2022/02/14 06:54:15;;;;;;;;;;;24.80;99.90;;;;;;5070776;28;19919;-72
2022/02/14 06:56:41;;;;;;;;;;;24.70;99.90;;;;;;5070105;28;19970;-73
2022/02/14 06:59:08;;;;;;;;;;;24.70;99.90;;;;;;5070431;28;20007;-73
2022/02/14 07:01:34;;;;;;;;;;;24.70;99.90;;;;;;5070408;28;19924;-73
2022/02/14 07:04:01;;;;;;;;;;;24.60;99.90;;;;;;5070057;28;19912;-72
2022/02/14 07:06:28;;;;;;;;;;;24.60;99.90;;;;;;5070486;28;19919;-73
2022/02/14 07:08:55;;;;;;;;;;;24.60;99.90;;;;;;5070611;28;19944;-73
2022/02/14 07:11:22;;;;;;;;;;;24.70;99.90;;;;;;5070293;28;19916;-73
2022/02/14 07:13:48;;;;;;;;;;;24.60;99.90;;;;;;5070318;28;19912;-73
2022/02/14 07:16:15;;;;;;;;;;;24.50;99.90;;;;;;5070350;28;19944;-73
2022/02/14 07:18:42;;;;;;;;;;;24.40;99.90;;;;;;5070538;28;19935;-73
2022/02/14 07:21:08;;;;;;;;;;;24.30;99.90;;;;;;5070294;28;19912;-73
2022/02/14 07:23:35;;;;;;;;;;;24.20;99.90;;;;;;5069947;28;19955;-73
2022/02/14 07:26:02;;;;;;;;;;;24.20;99.90;;;;;;5070108;28;20042;-73
2022/02/14 07:28:28;;;;;;;;;;;24.20;99.90;;;;;;5070252;28;19915;-73
2022/02/14 07:30:55;;;;;;;;;;;24.10;99.90;;;;;;5070223;28;19987;-73
2022/02/14 07:33:22;;;;;;;;;;;24.10;99.90;;;;;;5070278;28;20058;-73
2022/02/14 07:35:48;;;;;;;;;;;24.00;99.90;;;;;;5085396;28;19916;-73
2022/02/14 07:38:15;;;;;;;;;;;24.00;99.90;;;;;;5070082;28;19954;-72
2022/02/14 07:40:42;;;;;;;;;;;24.00;99.90;;;;;;5070034;28;19920;-72
2022/02/14 07:43:08;;;;;;;;;;;24.00;99.90;;;;;;5070052;28;20628;-72
2022/02/14 07:45:35;;;;;;;;;;;23.90;99.90;;;;;;5069964;28;19908;-72
2022/02/14 07:48:02;;;;;;;;;;;23.90;99.90;;;;;;5070221;28;19916;-73
2022/02/14 07:50:29;;;;;;;;;;;23.90;99.90;;;;;;5073792;28;19908;-72
2022/02/14 07:52:55;;;;;;;;;;;23.90;99.90;;;;;;5073939;28;19916;-71
2022/02/14 07:55:22;;;;;;;;;;;23.90;99.90;;;;;;5074121;28;19915;-71
2022/02/14 07:57:49;;;;;;;;;;;23.90;99.90;;;;;;5073850;28;19912;-72
2022/02/14 08:00:17;;;;;;;;;;;23.90;99.90;;;;;;5073592;28;19924;-72
2022/02/14 08:02:43;;;;;;;;;;;23.80;99.90;;;;;;5073707;28;19908;-72
2022/02/14 08:05:10;;;;;;;;;;;23.80;99.90;;;;;;5074109;28;19959;-73
2022/02/14 08:07:37;;;;;;;;;;;23.70;99.90;;;;;;5075790;28;19928;-73
2022/02/14 08:10:04;;;;;;;;;;;23.70;99.90;;;;;;5075632;28;19923;-72
2022/02/14 08:12:31;;;;;;;;;;;23.70;99.90;;;;;;5075571;28;19973;-72
2022/02/14 08:14:58;;;;;;;;;;;23.70;99.90;;;;;;5074477;28;20006;-73
2022/02/14 08:17:25;;;;;;;;;;;23.70;99.90;;;;;;5075755;28;19909;-72
2022/02/14 08:19:51;;;;;;;;;;;23.60;99.90;;;;;;5075484;28;20285;-72
2022/02/14 08:22:18;;;;;;;;;;;23.60;99.90;;;;;;5075496;28;19908;-72
2022/02/14 08:24:45;;;;;;;;;;;23.60;99.90;;;;;;5075400;28;19909;-73
2022/02/14 08:27:11;;;;;;;;;;;23.50;99.90;;;;;;5075318;28;20003;-72
2022/02/14 08:29:39;;;;;;;;;;;23.50;99.90;;;;;;5075353;28;19974;-73
2022/02/14 08:32:06;;;;;;;;;;;23.50;99.90;;;;;;5075070;28;20400;-72
2022/02/14 08:34:33;;;;;;;;;;;23.50;99.90;;;;;;5075443;28;19909;-72
2022/02/14 08:36:59;;;;;;;;;;;23.40;99.90;;;;;;5075339;28;20497;-72
2022/02/14 08:39:26;;;;;;;;;;;23.40;99.90;;;;;;5075357;28;19916;-72
2022/02/14 08:41:53;;;;;;;;;;;23.40;99.90;;;;;;5074998;28;19969;-72
2022/02/14 08:44:20;;;;;;;;;;;23.40;99.90;;;;;;5075156;28;19988;-73
2022/02/14 08:46:47;;;;;;;;;;;23.30;99.90;;;;;;5107444;28;20278;-72
2022/02/14 08:49:13;;;;;;;;;;;23.30;99.90;;;;;;5075021;28;19908;-72
2022/02/14 08:51:40;;;;;;;;;;;23.30;99.90;;;;;;5074675;28;19912;-72
2022/02/14 08:54:06;;;;;;;;;;;23.30;99.90;;;;;;5074799;28;19913;-73
2022/02/14 08:56:33;;;;;;;;;;;23.30;99.90;;;;;;5075207;28;19915;-73
2022/02/14 08:59:00;;;;;;;;;;;23.30;99.90;;;;;;5074593;28;19912;-73
2022/02/14 09:01:26;;;;;;;;;;;23.20;99.90;;;;;;5073569;28;20380;-73
2022/02/14 09:03:56;;;;;;;;;;;23.20;99.90;;;;;;5074013;28;19908;-73
2022/02/14 09:06:22;;;;;;;;;;;23.20;99.90;;;;;;5075022;28;19951;-73
2022/02/14 09:08:49;;;;;;;;;;;23.20;99.90;;;;;;5074842;28;20343;-73
2022/02/14 09:11:16;;;;;;;;;;;23.20;99.90;;;;;;5074614;28;19909;-72
2022/02/14 09:13:43;;;;;;;;;;;23.10;99.90;;;;;;5074583;28;19921;-72
2022/02/14 09:16:09;;;;;;;;;;;23.10;99.90;;;;;;5074386;28;19962;-72
2022/02/14 09:18:37;;;;;;;;;;;23.10;99.90;;;;;;5074124;28;19915;-72
2022/02/14 09:21:04;;;;;;;;;;;23.10;99.90;;;;;;5074690;28;19908;-72
2022/02/14 09:23:31;;;;;;;;;;;23.10;99.90;;;;;;5074750;28;19909;-72
2022/02/14 09:25:58;;;;;;;;;;;23.10;99.90;;;;;;5074289;28;19915;-72
2022/02/14 09:28:25;;;;;;;;;;;23.10;99.90;;;;;;5074504;28;19908;-72
2022/02/14 09:30:52;;;;;;;;;;;23.10;99.90;;;;;;5074047;28;20244;-72
2022/02/14 09:33:19;;;;;;;;;;;23.10;99.90;;;;;;5073611;28;19924;-72
2022/02/14 09:35:47;;;;;;;;;;;23.00;99.90;;;;;;5074087;28;19909;-72
2022/02/14 09:38:14;;;;;;;;;;;23.10;99.90;;;;;;5074182;28;19908;-71
2022/02/14 09:40:42;;;;;;;;;;;23.00;99.90;;;;;;5074282;28;20343;-72
2022/02/14 09:43:10;;;;;;;;;;;23.00;99.90;;;;;;5074072;28;19999;-72
2022/02/14 09:45:37;;;;;;;;;;;23.00;99.90;;;;;;5072569;28;20329;-72
2022/02/14 09:48:05;;;;;;;;;;;23.00;99.90;;;;;;5073185;28;19930;-72
2022/02/14 09:50:33;;;;;;;;;;;23.00;99.90;;;;;;5073856;28;19912;-72
2022/02/14 09:53:00;;;;;;;;;;;23.00;99.90;;;;;;5073959;28;19923;-72
2022/02/14 09:55:27;;;;;;;;;;;22.90;99.90;;;;;;5073719;28;19909;-72
2022/02/14 09:57:53;;;;;;;;;;;22.90;99.90;;;;;;5074125;28;19908;-72
2022/02/14 10:00:20;;;;;;;;;;;22.90;99.90;;;;;;5073370;28;19927;-72
2022/02/14 10:02:47;;;;;;;;;;;22.90;99.90;;;;;;5073206;28;20386;-72
2022/02/14 10:05:21;;;;;;;;;;;22.90;99.90;;;;;;5073773;28;19909;-72
2022/02/14 10:07:49;;;;;;;;;;;22.80;99.90;;;;;;5073481;28;19909;-72
2022/02/14 10:10:16;;;;;;;;;;;22.90;99.90;;;;;;5073750;28;19915;-72
2022/02/14 10:12:44;;;;;;;;;;;22.90;99.90;;;;;;5072909;28;19965;-72
2022/02/14 10:15:11;;;;;;;;;;;22.80;99.90;;;;;;5073391;28;19917;-72
2022/02/14 10:17:38;;;;;;;;;;;22.80;99.90;;;;;;5072784;28;19909;-72
2022/02/14 10:20:06;;;;;;;;;;;22.80;99.90;;;;;;5073185;28;19908;-72
2022/02/14 10:22:33;;;;;;;;;;;22.80;99.90;;;;;;5073111;28;19955;-72
2022/02/14 10:25:00;;;;;;;;;;;22.80;99.90;;;;;;5073067;28;19915;-73
2022/02/14 10:27:33;;;;;;;;;;;22.80;99.90;;;;;;5073050;28;19991;-72
2022/02/14 10:30:07;;;;;;;;;;;22.80;99.90;;;;;;5072872;28;19951;-73
2022/02/14 10:32:34;;;;;;;;;;;22.80;99.90;;;;;;5072631;28;20007;-73
2022/02/14 10:35:02;;;;;;;;;;;22.80;99.90;;;;;;5072976;28;19908;-73
2022/02/14 10:37:42;;;;;;;;;;;22.80;99.90;;;;;;5072794;28;19912;-72
2022/02/14 10:40:10;;;;;;;;;;;22.70;99.90;;;;;;5072736;28;19908;-72
2022/02/14 10:42:37;;;;;;;;;;;22.80;99.90;;;;;;5072991;28;20283;-73
2022/02/14 10:45:11;;;;;;;;;;;22.80;99.90;;;;;;5072735;28;19908;-72
2022/02/14 10:47:39;;;;;;;;;;;22.70;99.90;;;;;;5072318;28;19931;-72
2022/02/14 10:50:08;;;;;;;;;;;22.70;99.90;;;;;;5072398;28;19912;-72
2022/02/14 10:52:39;;;;;;;;;;;22.80;99.90;;;;;;5072756;28;19917;-72
2022/02/14 10:55:07;;;;;;;;;;;22.70;99.90;;;;;;5072744;28;19908;-71
2022/02/14 10:57:35;;;;;;;;;;;22.70;99.90;;;;;;5072680;28;19916;-71
2022/02/14 11:00:18;;;;;;;;;;;22.60;99.90;;;;;;5071918;28;19986;-71
2022/02/14 11:02:46;;;;;;;;;;;22.50;99.90;;;;;;5071995;28;19983;-71
2022/02/14 11:05:13;;;;;;;;;;;22.50;99.90;;;;;;5072596;28;19908;-71
2022/02/14 11:07:40;;;;;;;;;;;22.50;99.90;;;;;;5072560;28;19909;-71
2022/02/14 11:10:12;;;;;;;;;;;22.50;99.90;;;;;;5072353;28;19962;-70
2022/02/14 11:12:40;;;;;;;;;;;22.40;99.90;;;;;;5072433;28;19971;-71
2022/02/14 11:15:08;;;;;;;;;;;22.40;99.90;;;;;;5072231;28;19908;-71
2022/02/14 11:17:38;;;;;;;;;;;22.40;99.90;;;;;;5071871;28;19908;-71
2022/02/14 11:20:06;;;;;;;;;;;22.40;99.90;;;;;;5072370;28;19961;-71
2022/02/14 11:22:35;;;;;;;;;;;22.40;99.90;;;;;;5071954;28;20356;-71
2022/02/14 11:25:23;;;;;;;;;;;22.40;99.90;;;;;;5072214;28;19954;-72
2022/02/14 11:28:09;;;;;;;;;;;22.40;99.90;;;;;;5072357;28;19916;-72
2022/02/14 11:30:36;;;;;;;;;;;22.40;99.90;;;;;;5071827;28;19916;-71
2022/02/14 11:33:02;;;;;;;;;;;22.40;99.90;;;;;;5072530;28;19959;-72
2022/02/14 11:35:29;;;;;;;;;;;22.40;99.90;;;;;;5072438;28;19908;-72
2022/02/14 11:37:59;;;;;;;;;;;22.40;99.90;;;;;;5071854;28;20437;-72
2022/02/14 11:40:30;;;;;;;;;;;22.50;99.90;;;;;;5072095;28;19920;-72
2022/02/14 11:43:24;;;;;;;;;;;22.40;99.90;;;;;;5072219;28;20458;-72
2022/02/14 11:46:10;;;;;;;;;;;22.40;99.90;;;;;;5071445;28;19908;-72
2022/02/14 11:48:37;;;;;;;;;;;22.40;99.90;;;;;;5072121;28;20340;-72
2022/02/14 11:51:08;;;;;;;;;;;22.40;99.90;;;;;;5072397;28;19916;-71
2022/02/14 11:53:39;;;;;;;;;;;22.40;99.90;;;;;;5071908;28;20132;-72
2022/02/14 11:56:23;;;;;;;;;;;22.40;99.90;;;;;;5072026;28;19925;-72
2022/02/14 11:59:08;;;;;;;;;;;22.40;99.90;;;;;;5071923;28;19915;-72
2022/02/14 12:01:59;;;;;;;;;;;22.40;99.90;;;;;;5072277;28;19924;-72
2022/02/14 12:04:36;;;;;;;;;;;22.40;99.90;;;;;;5072096;28;19908;-72
2022/02/14 12:07:19;;;;;;;;;;;22.50;99.90;;;;;;5072203;28;19944;-72
2022/02/14 12:10:01;;;;;;;;;;;22.40;99.90;;;;;;5071956;28;19908;-72
2022/02/14 12:13:01;;;;;;;;;;;22.40;99.90;;;;;;5071962;28;20245;-71
2022/02/14 12:20:51;;;;;;;;;;;22.40;99.90;;;;;;5072051;28;19918;-71
2022/02/14 12:23:47;;;;;;;;;;;22.40;99.90;;;;;;5071998;28;19912;-72
2022/02/14 12:26:14;;;;;;;;;;;22.40;99.90;;;;;;5067280;28;19908;-72
2022/02/14 12:28:42;;;;;;;;;;;22.40;99.90;;;;;;5071944;28;20082;-72
2022/02/14 12:31:09;;;;;;;;;;;22.40;99.90;;;;;;5072004;28;19909;-72
2022/02/14 12:33:36;;;;;;;;;;;22.40;99.90;;;;;;5071860;28;19964;-72
2022/02/14 12:36:05;;;;;;;;;;;22.30;99.90;;;;;;5074895;28;20081;-72
2022/02/14 12:38:34;;;;;;;;;;;22.30;99.90;;;;;;5075342;28;19916;-72
2022/02/14 12:41:02;;;;;;;;;;;22.30;99.90;;;;;;5075542;28;19908;-72
2022/02/14 12:43:36;;;;;;;;;;;22.30;99.90;;;;;;5075172;28;19908;-72
2022/02/14 12:46:07;;;;;;;;;;;22.30;99.90;;;;;;5075153;28;20421;-72
2022/02/14 12:48:36;;;;;;;;;;;22.30;99.90;;;;;;5075508;28;19909;-72
2022/02/14 12:51:07;;;;;;;;;;;22.30;99.90;;;;;;5075331;28;20003;-72
2022/02/14 12:53:35;;;;;;;;;;;22.30;99.90;;;;;;5075352;28;20259;-73
2022/02/14 12:56:18;;;;;;;;;;;22.30;99.90;;;;;;5075060;28;19912;-72
2022/02/14 12:58:50;;;;;;;;;;;22.20;99.90;;;;;;5075148;28;20391;-72
2022/02/14 13:01:21;;;;;;;;;;;22.30;99.90;;;;;;5075135;28;19916;-72
2022/02/14 13:03:54;;;;;;;;;;;22.20;99.90;;;;;;5075058;28;19947;-72
2022/02/14 13:06:21;;;;;;;;;;;22.30;99.90;;;;;;5075100;28;19909;-72
2022/02/14 13:08:52;;;;;;;;;;;22.20;99.90;;;;;;5075232;28;19908;-73
2022/02/14 13:11:19;;;;;;;;;;;22.20;99.90;;;;;;5075236;28;20355;-72
2022/02/14 13:13:46;;;;;;;;;;;22.20;99.90;;;;;;5074657;28;19924;-70
2022/02/14 13:16:13;;;;;;;;;;;22.20;99.90;;;;;;5075043;28;19916;-71
2022/02/14 13:18:47;;;;;;;;;;;22.20;99.90;;;;;;5074876;28;19916;-71
2022/02/14 13:21:15;;;;;;;;;;;22.20;99.90;;;;;;5074816;28;19916;-71
2022/02/14 13:23:42;;;;;;;;;;;22.20;99.90;;;;;;5074822;28;19918;-71
2022/02/14 13:26:19;;;;;;;;;;;22.20;99.90;;;;;;5074404;28;19915;-72
2022/02/14 13:28:45;;;;;;;;;;;22.10;99.90;;;;;;5074560;28;20355;-71
2022/02/14 13:31:18;;;;;;;;;;;22.10;99.90;;;;;;5074667;28;19943;-72
2022/02/14 13:33:50;;;;;;;;;;;22.10;99.90;;;;;;5074620;28;19920;-72
2022/02/14 13:36:17;;;;;;;;;;;22.10;99.90;;;;;;5074657;28;19962;-72
2022/02/14 13:38:43;;;;;;;;;;;22.10;99.90;;;;;;5074422;28;19909;-72
2022/02/14 13:41:11;;;;;;;;;;;22.00;99.90;;;;;;5074441;28;19958;-72
2022/02/14 13:43:39;;;;;;;;;;;22.00;99.90;;;;;;5074175;28;20253;-72
2022/02/14 13:46:06;;;;;;;;;;;22.00;99.90;;;;;;5073485;28;20668;-72
2022/02/14 13:48:37;;;;;;;;;;;22.00;99.90;;;;;;5074225;28;19909;-72
2022/02/14 13:51:08;;;;;;;;;;;22.00;99.90;;;;;;5074274;28;19909;-72
2022/02/14 13:53:36;;;;;;;;;;;21.90;99.90;;;;;;5073957;28;19970;-72
2022/02/14 13:56:14;;;;;;;;;;;21.90;99.90;;;;;;5073915;28;19914;-72
2022/02/14 13:58:45;;;;;;;;;;;22.00;99.90;;;;;;5074012;28;19912;-73
2022/02/14 14:01:21;;;;;;;;;;;22.00;99.90;;;;;;5074017;28;19928;-72
2022/02/14 14:03:58;;;;;;;;;;;22.00;99.90;;;;;;5073693;28;19948;-72
2022/02/14 14:06:25;;;;;;;;;;;21.90;99.90;;;;;;5073791;28;19908;-72
2022/02/14 14:08:52;;;;;;;;;;;22.00;99.90;;;;;;5073933;28;19976;-72
2022/02/14 14:11:28;;;;;;;;;;;21.90;99.90;;;;;;5073834;28;19916;-72
2022/02/14 14:13:55;;;;;;;;;;;21.90;99.90;;;;;;5073350;28;19923;-72
2022/02/14 14:16:22;;;;;;;;;;;21.90;99.90;;;;;;5073654;28;19909;-72
2022/02/14 14:18:49;;;;;;;;;;;21.90;99.90;;;;;;5073724;28;19943;-72
2022/02/14 14:21:17;;;;;;;;;;;21.90;99.90;;;;;;5073580;28;19908;-72
2022/02/14 14:23:45;;;;;;;;;;;21.90;99.90;;;;;;5073550;28;19908;-72
2022/02/14 14:26:11;;;;;;;;;;;21.90;99.90;;;;;;5073548;28;20041;-72
2022/02/14 14:28:38;;;;;;;;;;;21.90;99.90;;;;;;5073355;28;20424;-72
2022/02/14 14:31:05;;;;;;;;;;;21.90;99.90;;;;;;5073480;28;20005;-72